sensor_id;sensor_type;location;lat;lon;timestamp;temperature;humidity
53053;DHT22;38934;52.690;6.184;2022-09-21T00:01:58;8.10;99.90
53053;DHT22;38934;52.690;6.184;2022-09-21T00:04:24;8.10;99.90
53053;DHT22;38934;52.690;6.184;2022-09-21T00:06:49;8.10;99.90
53053;DHT22;38934;52.690;6.184;2022-09-21T00:09:15;8.00;99.90
53053;DHT22;38934;52.690;6.184;2022-09-21T00:11:40;8.00;99.90
53053;DHT22;38934;52.690;6.184;2022-09-21T00:14:08;8.00;99.90
53053;DHT22;38934;52.690;6.184;2022-09-21T00:16:35;8.00;99.90
53053;DHT22;38934;52.690;6.184;2022-09-21T00:19:01;8.00;99.90
53053;DHT22;38934;52.690;6.184;2022-09-21T00:21:26;7.90;99.90
53053;DHT22;38934;52.690;6.184;2022-09-21T00:23:52;7.90;99.90
53053;DHT22;38934;52.690;6.184;2022-09-21T00:26:19;7.90;99.90
53053;DHT22;38934;52.690;6.184;2022-09-21T00:28:45;7.80;99.90
53053;DHT22;38934;52.690;6.184;2022-09-21T00:31:12;7.80;99.90
53053;DHT22;38934;52.690;6.184;2022-09-21T00:33:38;7.80;99.90
53053;DHT22;38934;52.690;6.184;2022-09-21T00:36:06;7.80;99.90
53053;DHT22;38934;52.690;6.184;2022-09-21T00:38:32;7.80;99.90
53053;DHT22;38934;52.690;6.184;2022-09-21T00:40:58;7.80;99.90
53053;DHT22;38934;52.690;6.184;2022-09-21T00:43:23;7.80;99.90
53053;DHT22;38934;52.690;6.184;2022-09-21T00:45:49;7.80;99.90
53053;DHT22;38934;52.690;6.184;2022-09-21T00:48:16;7.70;99.90
53053;DHT22;38934;52.690;6.184;2022-09-21T00:50:44;7.70;99.90
53053;DHT22;38934;52.690;6.184;2022-09-21T00:53:12;7.70;99.90
53053;DHT22;38934;52.690;6.184;2022-09-21T00:55:41;7.70;99.90
53053;DHT22;38934;52.690;6.184;2022-09-21T00:58:09;7.70;99.90
53053;DHT22;38934;52.690;6.184;2022-09-21T01:00:36;7.70;99.90
53053;DHT22;38934;52.690;6.184;2022-09-21T01:03:02;7.60;99.90
53053;DHT22;38934;52.690;6.184;2022-09-21T01:05:29;7.60;99.90
53053;DHT22;38934;52.690;6.184;2022-09-21T01:07:55;7.60;99.90
53053;DHT22;38934;52.690;6.184;2022-09-21T01:10:21;7.60;99.90
53053;DHT22;38934;52.690;6.184;2022-09-21T01:18:25;7.50;99.90
53053;DHT22;38934;52.690;6.184;2022-09-21T01:23:39;7.50;99.90
53053;DHT22;38934;52.690;6.184;2022-09-21T01:26:15;7.50;99.90
53053;DHT22;38934;52.690;6.184;2022-09-21T01:31:44;7.40;99.90
53053;DHT22;38934;52.690;6.184;2022-09-21T01:34:18;7.40;99.90
53053;DHT22;38934;52.690;6.184;2022-09-21T01:36:44;7.40;99.90
53053;DHT22;38934;52.690;6.184;2022-09-21T01:39:12;7.40;99.90
53053;DHT22;38934;52.690;6.184;2022-09-21T01:41:39;7.30;99.90
53053;DHT22;38934;52.690;6.184;2022-09-21T01:44:07;7.30;99.90
53053;DHT22;38934;52.690;6.184;2022-09-21T01:46:33;7.30;99.90
53053;DHT22;38934;52.690;6.184;2022-09-21T01:49:14;7.30;99.90
53053;DHT22;38934;52.690;6.184;2022-09-21T01:51:42;7.40;99.90
53053;DHT22;38934;52.690;6.184;2022-09-21T01:54:13;7.30;99.90
53053;DHT22;38934;52.690;6.184;2022-09-21T01:56:40;7.20;99.90
53053;DHT22;38934;52.690;6.184;2022-09-21T02:01:34;7.20;99.90
53053;DHT22;38934;52.690;6.184;2022-09-21T02:04:02;7.20;99.90
53053;DHT22;38934;52.690;6.184;2022-09-21T02:06:28;7.20;99.90
53053;DHT22;38934;52.690;6.184;2022-09-21T02:08:54;7.10;99.90
53053;DHT22;38934;52.690;6.184;2022-09-21T02:11:21;7.50;99.90
53053;DHT22;38934;52.690;6.184;2022-09-21T02:13:47;7.10;99.90
53053;DHT22;38934;52.690;6.184;2022-09-21T02:16:21;7.10;99.90
53053;DHT22;38934;52.690;6.184;2022-09-21T02:26:33;7.10;99.90
53053;DHT22;38934;52.690;6.184;2022-09-21T02:29:03;7.10;99.90
53053;DHT22;38934;52.690;6.184;2022-09-21T02:34:17;7.00;99.90
53053;DHT22;38934;52.690;6.184;2022-09-21T02:36:46;7.00;99.90
53053;DHT22;38934;52.690;6.184;2022-09-21T02:39:15;7.00;99.90
53053;DHT22;38934;52.690;6.184;2022-09-21T02:41:42;6.90;99.90
53053;DHT22;38934;52.690;6.184;2022-09-21T02:44:12;6.90;99.90
53053;DHT22;38934;52.690;6.184;2022-09-21T02:46:49;6.90;99.90
53053;DHT22;38934;52.690;6.184;2022-09-21T02:49:19;6.90;99.90
53053;DHT22;38934;52.690;6.184;2022-09-21T02:51:46;6.80;99.90
53053;DHT22;38934;52.690;6.184;2022-09-21T02:54:16;6.80;99.90
53053;DHT22;38934;52.690;6.184;2022-09-21T02:56:44;6.80;99.90
53053;DHT22;38934;52.690;6.184;2022-09-21T02:59:10;6.80;99.90
53053;DHT22;38934;52.690;6.184;2022-09-21T03:01:37;6.70;99.90
53053;DHT22;38934;52.690;6.184;2022-09-21T03:04:03;6.70;99.90
53053;DHT22;38934;52.690;6.184;2022-09-21T03:06:29;7.00;99.90
53053;DHT22;38934;52.690;6.184;2022-09-21T03:08:55;7.20;99.90
53053;DHT22;38934;52.690;6.184;2022-09-21T03:11:22;6.70;99.90
53053;DHT22;38934;52.690;6.184;2022-09-21T03:13:48;6.80;99.90
53053;DHT22;38934;52.690;6.184;2022-09-21T03:16:15;6.60;99.90
53053;DHT22;38934;52.690;6.184;2022-09-21T03:18:40;6.60;99.90
53053;DHT22;38934;52.690;6.184;2022-09-21T03:21:08;6.60;99.90
53053;DHT22;38934;52.690;6.184;2022-09-21T03:23:33;6.60;99.90
53053;DHT22;38934;52.690;6.184;2022-09-21T03:25:59;6.70;99.90
53053;DHT22;38934;52.690;6.184;2022-09-21T03:28:25;7.40;99.90
53053;DHT22;38934;52.690;6.184;2022-09-21T03:30:51;6.90;99.90
53053;DHT22;38934;52.690;6.184;2022-09-21T03:33:17;6.60;99.90
53053;DHT22;38934;52.690;6.184;2022-09-21T03:35:43;6.60;99.90
53053;DHT22;38934;52.690;6.184;2022-09-21T03:38:09;6.60;99.90
53053;DHT22;38934;52.690;6.184;2022-09-21T03:40:34;6.50;99.90
53053;DHT22;38934;52.690;6.184;2022-09-21T03:43:00;6.50;99.90
53053;DHT22;38934;52.690;6.184;2022-09-21T03:45:25;6.50;99.90
53053;DHT22;38934;52.690;6.184;2022-09-21T03:47:55;6.50;99.90
53053;DHT22;38934;52.690;6.184;2022-09-21T03:50:21;6.50;99.90
53053;DHT22;38934;52.690;6.184;2022-09-21T03:52:47;6.40;99.90
53053;DHT22;38934;52.690;6.184;2022-09-21T03:55:12;6.40;99.90
53053;DHT22;38934;52.690;6.184;2022-09-21T03:57:38;6.40;99.90
53053;DHT22;38934;52.690;6.184;2022-09-21T04:00:04;6.40;99.90
53053;DHT22;38934;52.690;6.184;2022-09-21T04:02:31;6.40;99.90
53053;DHT22;38934;52.690;6.184;2022-09-21T04:04:56;6.40;99.90
53053;DHT22;38934;52.690;6.184;2022-09-21T04:07:22;6.40;99.90
53053;DHT22;38934;52.690;6.184;2022-09-21T04:09:47;6.50;99.90
53053;DHT22;38934;52.690;6.184;2022-09-21T04:12:13;6.30;99.90
53053;DHT22;38934;52.690;6.184;2022-09-21T04:14:38;6.30;99.90
53053;DHT22;38934;52.690;6.184;2022-09-21T04:17:04;6.30;99.90
53053;DHT22;38934;52.690;6.184;2022-09-21T04:19:29;6.30;99.90
53053;DHT22;38934;52.690;6.184;2022-09-21T04:21:55;6.20;99.90
53053;DHT22;38934;52.690;6.184;2022-09-21T04:24:21;6.20;99.90
53053;DHT22;38934;52.690;6.184;2022-09-21T04:26:46;6.20;99.90
53053;DHT22;38934;52.690;6.184;2022-09-21T04:29:12;6.20;99.90
53053;DHT22;38934;52.690;6.184;2022-09-21T04:31:38;6.20;99.90
53053;DHT22;38934;52.690;6.184;2022-09-21T04:34:03;6.20;99.90
53053;DHT22;38934;52.690;6.184;2022-09-21T04:36:29;6.20;99.90
53053;DHT22;38934;52.690;6.184;2022-09-21T04:38:57;6.10;99.90
53053;DHT22;38934;52.690;6.184;2022-09-21T04:41:22;6.10;99.90
53053;DHT22;38934;52.690;6.184;2022-09-21T04:43:48;6.10;99.90
53053;DHT22;38934;52.690;6.184;2022-09-21T04:46:15;6.10;99.90
53053;DHT22;38934;52.690;6.184;2022-09-21T04:48:41;6.10;99.90
53053;DHT22;38934;52.690;6.184;2022-09-21T04:51:07;6.00;99.90
53053;DHT22;38934;52.690;6.184;2022-09-21T04:53:33;6.00;99.90
53053;DHT22;38934;52.690;6.184;2022-09-21T04:55:59;6.00;99.90
53053;DHT22;38934;52.690;6.184;2022-09-21T04:58:25;6.00;99.90
53053;DHT22;38934;52.690;6.184;2022-09-21T05:00:51;6.00;99.90
53053;DHT22;38934;52.690;6.184;2022-09-21T05:03:17;6.00;99.90
53053;DHT22;38934;52.690;6.184;2022-09-21T05:05:46;6.00;99.90
53053;DHT22;38934;52.690;6.184;2022-09-21T05:08:12;6.00;99.90
53053;DHT22;38934;52.690;6.184;2022-09-21T05:10:38;5.90;99.90
53053;DHT22;38934;52.690;6.184;2022-09-21T05:13:03;5.90;99.90
53053;DHT22;38934;52.690;6.184;2022-09-21T05:15:29;5.90;99.90
53053;DHT22;38934;52.690;6.184;2022-09-21T05:17:54;5.90;99.90
53053;DHT22;38934;52.690;6.184;2022-09-21T05:20:20;5.90;99.90
53053;DHT22;38934;52.690;6.184;2022-09-21T05:22:45;5.90;99.90
53053;DHT22;38934;52.690;6.184;2022-09-21T05:25:11;5.90;99.90
53053;DHT22;38934;52.690;6.184;2022-09-21T05:27:36;5.90;99.90
53053;DHT22;38934;52.690;6.184;2022-09-21T05:30:02;5.90;99.90
53053;DHT22;38934;52.690;6.184;2022-09-21T05:32:44;5.90;99.90
53053;DHT22;38934;52.690;6.184;2022-09-21T05:35:15;5.90;99.90
53053;DHT22;38934;52.690;6.184;2022-09-21T05:40:23;5.90;99.90
53053;DHT22;38934;52.690;6.184;2022-09-21T05:42:48;5.90;99.90
53053;DHT22;38934;52.690;6.184;2022-09-21T05:45:15;6.00;99.90
53053;DHT22;38934;52.690;6.184;2022-09-21T05:50:22;6.00;99.90
53053;DHT22;38934;52.690;6.184;2022-09-21T06:00:23;6.10;99.90
53053;DHT22;38934;52.690;6.184;2022-09-21T06:05:23;6.10;99.90
53053;DHT22;38934;52.690;6.184;2022-09-21T06:07:49;6.20;99.90
53053;DHT22;38934;52.690;6.184;2022-09-21T06:10:15;6.20;99.90
53053;DHT22;38934;52.690;6.184;2022-09-21T06:12:40;7.30;99.90
53053;DHT22;38934;52.690;6.184;2022-09-21T06:15:07;6.20;99.90
53053;DHT22;38934;52.690;6.184;2022-09-21T06:17:34;6.20;99.90
53053;DHT22;38934;52.690;6.184;2022-09-21T06:19:59;6.30;99.90
53053;DHT22;38934;52.690;6.184;2022-09-21T06:22:25;6.30;99.90
53053;DHT22;38934;52.690;6.184;2022-09-21T06:24:50;6.30;99.90
53053;DHT22;38934;52.690;6.184;2022-09-21T06:27:16;6.40;99.90
53053;DHT22;38934;52.690;6.184;2022-09-21T06:29:41;6.60;99.90
53053;DHT22;38934;52.690;6.184;2022-09-21T06:32:07;6.50;99.90
53053;DHT22;38934;52.690;6.184;2022-09-21T06:34:32;6.50;99.90
53053;DHT22;38934;52.690;6.184;2022-09-21T06:36:58;6.60;99.90
53053;DHT22;38934;52.690;6.184;2022-09-21T06:39:23;6.60;99.90
53053;DHT22;38934;52.690;6.184;2022-09-21T06:41:50;6.80;99.90
53053;DHT22;38934;52.690;6.184;2022-09-21T06:44:16;6.70;99.90
53053;DHT22;38934;52.690;6.184;2022-09-21T06:46:41;6.80;99.90
53053;DHT22;38934;52.690;6.184;2022-09-21T06:49:07;6.80;99.90
53053;DHT22;38934;52.690;6.184;2022-09-21T06:51:32;6.80;99.90
53053;DHT22;38934;52.690;6.184;2022-09-21T06:53:58;6.90;99.90
53053;DHT22;38934;52.690;6.184;2022-09-21T06:56:24;7.00;99.90
53053;DHT22;38934;52.690;6.184;2022-09-21T06:58:50;7.00;99.90
53053;DHT22;38934;52.690;6.184;2022-09-21T07:01:16;7.10;99.90
53053;DHT22;38934;52.690;6.184;2022-09-21T07:03:42;7.10;99.90
53053;DHT22;38934;52.690;6.184;2022-09-21T07:06:08;7.20;99.90
53053;DHT22;38934;52.690;6.184;2022-09-21T07:08:36;7.20;99.90
53053;DHT22;38934;52.690;6.184;2022-09-21T07:11:02;7.30;99.90
53053;DHT22;38934;52.690;6.184;2022-09-21T07:13:28;7.50;99.90
53053;DHT22;38934;52.690;6.184;2022-09-21T07:15:53;7.30;99.90
53053;DHT22;38934;52.690;6.184;2022-09-21T07:18:19;7.40;99.90
53053;DHT22;38934;52.690;6.184;2022-09-21T07:20:46;7.40;99.90
53053;DHT22;38934;52.690;6.184;2022-09-21T07:23:14;8.00;99.90
53053;DHT22;38934;52.690;6.184;2022-09-21T07:25:40;7.60;99.90
53053;DHT22;38934;52.690;6.184;2022-09-21T07:28:06;7.60;99.90
53053;DHT22;38934;52.690;6.184;2022-09-21T07:30:31;7.70;99.90
53053;DHT22;38934;52.690;6.184;2022-09-21T07:32:57;7.80;99.90
53053;DHT22;38934;52.690;6.184;2022-09-21T07:35:23;7.80;99.90
53053;DHT22;38934;52.690;6.184;2022-09-21T07:37:48;7.90;99.90
53053;DHT22;38934;52.690;6.184;2022-09-21T07:40:14;8.00;99.90
53053;DHT22;38934;52.690;6.184;2022-09-21T07:42:39;8.10;99.90
53053;DHT22;38934;52.690;6.184;2022-09-21T07:45:05;8.20;99.90
53053;DHT22;38934;52.690;6.184;2022-09-21T07:47:31;8.30;99.90
53053;DHT22;38934;52.690;6.184;2022-09-21T07:49:56;8.30;99.90
53053;DHT22;38934;52.690;6.184;2022-09-21T07:52:22;8.40;99.90
53053;DHT22;38934;52.690;6.184;2022-09-21T07:54:47;8.50;99.90
53053;DHT22;38934;52.690;6.184;2022-09-21T07:57:13;8.70;99.90
53053;DHT22;38934;52.690;6.184;2022-09-21T07:59:56;8.80;99.90
53053;DHT22;38934;52.690;6.184;2022-09-21T08:02:22;8.90;99.90
53053;DHT22;38934;52.690;6.184;2022-09-21T08:04:48;9.00;99.90
53053;DHT22;38934;52.690;6.184;2022-09-21T08:07:13;9.10;99.90
53053;DHT22;38934;52.690;6.184;2022-09-21T08:09:39;9.20;99.90
53053;DHT22;38934;52.690;6.184;2022-09-21T08:12:06;9.40;99.90
53053;DHT22;38934;52.690;6.184;2022-09-21T08:14:31;9.50;99.90
53053;DHT22;38934;52.690;6.184;2022-09-21T08:16:59;9.60;99.90
53053;DHT22;38934;52.690;6.184;2022-09-21T08:19:24;9.70;99.90
53053;DHT22;38934;52.690;6.184;2022-09-21T08:21:51;9.80;99.90
53053;DHT22;38934;52.690;6.184;2022-09-21T08:24:17;9.90;99.90
53053;DHT22;38934;52.690;6.184;2022-09-21T08:26:42;9.90;99.90
53053;DHT22;38934;52.690;6.184;2022-09-21T08:29:08;10.00;99.90
53053;DHT22;38934;52.690;6.184;2022-09-21T08:31:34;10.20;99.90
53053;DHT22;38934;52.690;6.184;2022-09-21T08:33:59;10.20;99.90
53053;DHT22;38934;52.690;6.184;2022-09-21T08:36:25;10.30;99.90
53053;DHT22;38934;52.690;6.184;2022-09-21T08:38:50;10.40;99.90
53053;DHT22;38934;52.690;6.184;2022-09-21T08:41:17;10.50;99.90
53053;DHT22;38934;52.690;6.184;2022-09-21T08:46:36;10.60;99.90
53053;DHT22;38934;52.690;6.184;2022-09-21T08:49:04;10.80;99.90
53053;DHT22;38934;52.690;6.184;2022-09-21T08:51:35;10.90;99.90
53053;DHT22;38934;52.690;6.184;2022-09-21T08:54:21;10.90;99.90
53053;DHT22;38934;52.690;6.184;2022-09-21T08:56:49;11.00;99.90
53053;DHT22;38934;52.690;6.184;2022-09-21T08:59:14;11.10;99.90
53053;DHT22;38934;52.690;6.184;2022-09-21T09:04:16;11.30;99.90
53053;DHT22;38934;52.690;6.184;2022-09-21T09:12:16;11.40;99.90
53053;DHT22;38934;52.690;6.184;2022-09-21T09:20:10;11.60;99.90
53053;DHT22;38934;52.690;6.184;2022-09-21T09:22:45;11.70;99.90
53053;DHT22;38934;52.690;6.184;2022-09-21T09:25:21;11.90;99.90
53053;DHT22;38934;52.690;6.184;2022-09-21T09:27:49;12.00;99.90
53053;DHT22;38934;52.690;6.184;2022-09-21T09:30:17;12.10;99.90
53053;DHT22;38934;52.690;6.184;2022-09-21T09:32:50;12.20;99.90
53053;DHT22;38934;52.690;6.184;2022-09-21T09:35:24;12.20;99.90
53053;DHT22;38934;52.690;6.184;2022-09-21T09:37:51;12.30;99.90
53053;DHT22;38934;52.690;6.184;2022-09-21T09:40:22;12.30;99.90
53053;DHT22;38934;52.690;6.184;2022-09-21T09:43:00;12.50;99.90
53053;DHT22;38934;52.690;6.184;2022-09-21T09:45:32;12.40;99.90
53053;DHT22;38934;52.690;6.184;2022-09-21T09:48:06;12.60;99.90
53053;DHT22;38934;52.690;6.184;2022-09-21T09:50:39;12.90;99.90
53053;DHT22;38934;52.690;6.184;2022-09-21T09:53:13;12.70;99.90
53053;DHT22;38934;52.690;6.184;2022-09-21T09:55:39;12.80;99.90
53053;DHT22;38934;52.690;6.184;2022-09-21T10:00:54;12.90;99.90
53053;DHT22;38934;52.690;6.184;2022-09-21T10:03:24;12.90;99.90
53053;DHT22;38934;52.690;6.184;2022-09-21T10:05:50;13.00;99.90
53053;DHT22;38934;52.690;6.184;2022-09-21T10:11:01;13.30;99.90
53053;DHT22;38934;52.690;6.184;2022-09-21T10:13:28;13.60;99.90
53053;DHT22;38934;52.690;6.184;2022-09-21T10:20:55;14.30;99.90
53053;DHT22;38934;52.690;6.184;2022-09-21T10:23:22;14.50;99.90
53053;DHT22;38934;52.690;6.184;2022-09-21T10:25:54;15.00;99.90
53053;DHT22;38934;52.690;6.184;2022-09-21T10:28:21;14.90;99.90
53053;DHT22;38934;52.690;6.184;2022-09-21T10:30:47;15.20;99.90
53053;DHT22;38934;52.690;6.184;2022-09-21T10:33:17;15.30;99.90
53053;DHT22;38934;52.690;6.184;2022-09-21T10:35:50;15.50;99.90
53053;DHT22;38934;52.690;6.184;2022-09-21T10:38:19;15.70;99.90
53053;DHT22;38934;52.690;6.184;2022-09-21T10:40:51;16.00;99.90
53053;DHT22;38934;52.690;6.184;2022-09-21T10:43:32;16.20;99.90
53053;DHT22;38934;52.690;6.184;2022-09-21T10:45:59;16.40;99.90
53053;DHT22;38934;52.690;6.184;2022-09-21T10:48:25;16.50;99.90
53053;DHT22;38934;52.690;6.184;2022-09-21T10:50:51;16.70;99.90
53053;DHT22;38934;52.690;6.184;2022-09-21T10:53:27;16.80;99.90
53053;DHT22;38934;52.690;6.184;2022-09-21T10:58:19;16.90;99.90
53053;DHT22;38934;52.690;6.184;2022-09-21T11:00:48;16.90;99.90
53053;DHT22;38934;52.690;6.184;2022-09-21T11:05:50;16.60;99.90
53053;DHT22;38934;52.690;6.184;2022-09-21T11:08:19;16.40;99.90
53053;DHT22;38934;52.690;6.184;2022-09-21T11:10:59;16.30;99.90
53053;DHT22;38934;52.690;6.184;2022-09-21T11:13:29;16.30;99.90
53053;DHT22;38934;52.690;6.184;2022-09-21T11:15:58;16.30;99.90
53053;DHT22;38934;52.690;6.184;2022-09-21T11:18:39;16.40;99.90
53053;DHT22;38934;52.690;6.184;2022-09-21T11:26:29;16.60;99.90
53053;DHT22;38934;52.690;6.184;2022-09-21T11:29:01;16.60;99.90
53053;DHT22;38934;52.690;6.184;2022-09-21T11:34:57;16.80;99.90
53053;DHT22;38934;52.690;6.184;2022-09-21T11:39:48;17.00;99.90
53053;DHT22;38934;52.690;6.184;2022-09-21T11:42:27;17.00;99.90
53053;DHT22;38934;52.690;6.184;2022-09-21T11:44:56;17.20;99.90
53053;DHT22;38934;52.690;6.184;2022-09-21T11:53:16;17.20;99.90
53053;DHT22;38934;52.690;6.184;2022-09-21T12:11:02;17.80;99.90
53053;DHT22;38934;52.690;6.184;2022-09-21T12:13:37;17.90;99.90
53053;DHT22;38934;52.690;6.184;2022-09-21T12:16:17;18.00;99.90
53053;DHT22;38934;52.690;6.184;2022-09-21T12:18:55;18.10;99.90
53053;DHT22;38934;52.690;6.184;2022-09-21T12:21:23;18.00;99.90
53053;DHT22;38934;52.690;6.184;2022-09-21T12:23:57;18.00;99.90
53053;DHT22;38934;52.690;6.184;2022-09-21T12:26:26;18.00;99.90
53053;DHT22;38934;52.690;6.184;2022-09-21T12:28:53;18.00;99.90
53053;DHT22;38934;52.690;6.184;2022-09-21T12:31:22;18.10;99.90
53053;DHT22;38934;52.690;6.184;2022-09-21T12:33:55;18.00;99.90
53053;DHT22;38934;52.690;6.184;2022-09-21T12:36:31;18.10;99.90
53053;DHT22;38934;52.690;6.184;2022-09-21T12:39:02;18.20;99.90
53053;DHT22;38934;52.690;6.184;2022-09-21T12:41:38;18.20;99.90
53053;DHT22;38934;52.690;6.184;2022-09-21T12:46:42;18.30;99.90
53053;DHT22;38934;52.690;6.184;2022-09-21T12:49:14;18.30;99.90
53053;DHT22;38934;52.690;6.184;2022-09-21T12:51:42;18.20;99.90
53053;DHT22;38934;52.690;6.184;2022-09-21T12:54:22;18.00;99.90
53053;DHT22;38934;52.690;6.184;2022-09-21T12:57:09;18.00;99.90
53053;DHT22;38934;52.690;6.184;2022-09-21T13:04:57;18.00;99.90
53053;DHT22;38934;52.690;6.184;2022-09-21T13:07:33;17.80;99.90
53053;DHT22;38934;52.690;6.184;2022-09-21T13:10:18;17.70;99.90
53053;DHT22;38934;52.690;6.184;2022-09-21T13:12:46;17.70;99.90
53053;DHT22;38934;52.690;6.184;2022-09-21T13:15:21;17.70;99.90
53053;DHT22;38934;52.690;6.184;2022-09-21T13:17:55;17.80;99.90
53053;DHT22;38934;52.690;6.184;2022-09-21T13:20:22;17.70;99.90
53053;DHT22;38934;52.690;6.184;2022-09-21T13:22:48;17.40;99.90
53053;DHT22;38934;52.690;6.184;2022-09-21T13:27:58;17.10;99.90
53053;DHT22;38934;52.690;6.184;2022-09-21T13:32:59;16.70;99.90
53053;DHT22;38934;52.690;6.184;2022-09-21T13:38:26;16.40;99.90
53053;DHT22;38934;52.690;6.184;2022-09-21T13:40:57;16.30;99.90
53053;DHT22;38934;52.690;6.184;2022-09-21T13:43:24;16.20;99.90
53053;DHT22;38934;52.690;6.184;2022-09-21T13:46:08;16.10;99.90
53053;DHT22;38934;52.690;6.184;2022-09-21T13:48:35;16.20;99.90
53053;DHT22;38934;52.690;6.184;2022-09-21T13:51:05;16.30;99.90
53053;DHT22;38934;52.690;6.184;2022-09-21T13:53:32;16.50;99.90
53053;DHT22;38934;52.690;6.184;2022-09-21T13:56:06;16.70;99.90
53053;DHT22;38934;52.690;6.184;2022-09-21T13:58:33;16.80;99.90
53053;DHT22;38934;52.690;6.184;2022-09-21T14:01:05;17.00;99.90
53053;DHT22;38934;52.690;6.184;2022-09-21T14:03:37;17.00;99.90
53053;DHT22;38934;52.690;6.184;2022-09-21T14:06:08;17.20;99.90
53053;DHT22;38934;52.690;6.184;2022-09-21T14:08:35;17.10;99.90
53053;DHT22;38934;52.690;6.184;2022-09-21T14:11:06;17.10;99.90
53053;DHT22;38934;52.690;6.184;2022-09-21T14:13:35;17.10;99.90
53053;DHT22;38934;52.690;6.184;2022-09-21T14:18:50;17.10;99.90
53053;DHT22;38934;52.690;6.184;2022-09-21T14:21:16;17.20;99.90
53053;DHT22;38934;52.690;6.184;2022-09-21T14:29:50;17.30;99.90
53053;DHT22;38934;52.690;6.184;2022-09-21T14:31:51;17.40;99.90
53053;DHT22;38934;52.690;6.184;2022-09-21T14:34:18;17.40;99.90
53053;DHT22;38934;52.690;6.184;2022-09-21T14:36:47;17.40;99.90
53053;DHT22;38934;52.690;6.184;2022-09-21T14:39:19;17.60;99.90
53053;DHT22;38934;52.690;6.184;2022-09-21T14:41:47;17.50;99.90
53053;DHT22;38934;52.690;6.184;2022-09-21T14:44:20;17.60;99.90
53053;DHT22;38934;52.690;6.184;2022-09-21T14:46:53;17.70;99.90
53053;DHT22;38934;52.690;6.184;2022-09-21T14:52:06;17.80;99.90
53053;DHT22;38934;52.690;6.184;2022-09-21T15:02:21;17.90;99.90
53053;DHT22;38934;52.690;6.184;2022-09-21T15:07:35;18.00;99.90
53053;DHT22;38934;52.690;6.184;2022-09-21T15:10:21;18.00;98.10
53053;DHT22;38934;52.690;6.184;2022-09-21T15:13:10;18.00;99.20
53053;DHT22;38934;52.690;6.184;2022-09-21T15:18:13;18.00;98.80
53053;DHT22;38934;52.690;6.184;2022-09-21T15:20:39;18.00;98.50
53053;DHT22;38934;52.690;6.184;2022-09-21T15:23:14;18.00;95.90
53053;DHT22;38934;52.690;6.184;2022-09-21T15:25:41;17.90;96.10
53053;DHT22;38934;52.690;6.184;2022-09-21T15:28:09;18.00;95.40
53053;DHT22;38934;52.690;6.184;2022-09-21T15:30:39;17.90;97.90
53053;DHT22;38934;52.690;6.184;2022-09-21T15:33:08;18.00;97.80
53053;DHT22;38934;52.690;6.184;2022-09-21T15:35:35;18.00;97.30
53053;DHT22;38934;52.690;6.184;2022-09-21T15:38:00;18.10;97.90
53053;DHT22;38934;52.690;6.184;2022-09-21T15:40:31;18.00;98.20
53053;DHT22;38934;52.690;6.184;2022-09-21T15:45:26;17.90;98.50
53053;DHT22;38934;52.690;6.184;2022-09-21T15:47:52;17.80;99.90
53053;DHT22;38934;52.690;6.184;2022-09-21T15:50:19;17.80;99.10
53053;DHT22;38934;52.690;6.184;2022-09-21T15:52:47;17.70;99.10
53053;DHT22;38934;52.690;6.184;2022-09-21T15:55:18;17.60;99.90
53053;DHT22;38934;52.690;6.184;2022-09-21T15:57:46;17.60;99.90
53053;DHT22;38934;52.690;6.184;2022-09-21T16:02:38;17.50;96.90
53053;DHT22;38934;52.690;6.184;2022-09-21T16:05:06;17.40;97.60
53053;DHT22;38934;52.690;6.184;2022-09-21T16:07:33;17.30;99.90
53053;DHT22;38934;52.690;6.184;2022-09-21T16:09:59;17.30;99.60
53053;DHT22;38934;52.690;6.184;2022-09-21T16:14:51;17.10;99.90
53053;DHT22;38934;52.690;6.184;2022-09-21T16:22:24;17.00;99.90
53053;DHT22;38934;52.690;6.184;2022-09-21T16:24:55;16.90;99.90
53053;DHT22;38934;52.690;6.184;2022-09-21T16:27:27;16.80;99.90
53053;DHT22;38934;52.690;6.184;2022-09-21T16:29:54;16.80;99.90
53053;DHT22;38934;52.690;6.184;2022-09-21T16:32:26;16.70;99.90
53053;DHT22;38934;52.690;6.184;2022-09-21T16:34:52;16.60;99.90
53053;DHT22;38934;52.690;6.184;2022-09-21T16:39:44;16.50;99.90
53053;DHT22;38934;52.690;6.184;2022-09-21T16:42:10;16.30;99.90
53053;DHT22;38934;52.690;6.184;2022-09-21T16:44:36;16.20;99.90
53053;DHT22;38934;52.690;6.184;2022-09-21T16:49:37;16.00;99.90
53053;DHT22;38934;52.690;6.184;2022-09-21T16:52:03;16.10;99.90
53053;DHT22;38934;52.690;6.184;2022-09-21T16:54:28;15.80;99.90
53053;DHT22;38934;52.690;6.184;2022-09-21T16:56:55;15.70;99.90
53053;DHT22;38934;52.690;6.184;2022-09-21T16:59:21;15.60;99.90
53053;DHT22;38934;52.690;6.184;2022-09-21T17:01:48;15.50;99.90
53053;DHT22;38934;52.690;6.184;2022-09-21T17:04:15;15.40;99.90
53053;DHT22;38934;52.690;6.184;2022-09-21T17:06:41;15.70;99.90
53053;DHT22;38934;52.690;6.184;2022-09-21T17:09:20;15.40;99.90
53053;DHT22;38934;52.690;6.184;2022-09-21T17:11:46;15.10;99.90
53053;DHT22;38934;52.690;6.184;2022-09-21T17:14:12;15.10;99.90
53053;DHT22;38934;52.690;6.184;2022-09-21T17:16:41;15.00;99.90
53053;DHT22;38934;52.690;6.184;2022-09-21T17:19:08;14.80;99.90
53053;DHT22;38934;52.690;6.184;2022-09-21T17:21:33;14.60;99.90
53053;DHT22;38934;52.690;6.184;2022-09-21T17:23:59;14.50;99.90
53053;DHT22;38934;52.690;6.184;2022-09-21T17:26:24;14.40;99.90
53053;DHT22;38934;52.690;6.184;2022-09-21T17:28:50;14.30;99.90
53053;DHT22;38934;52.690;6.184;2022-09-21T17:31:17;14.20;99.90
53053;DHT22;38934;52.690;6.184;2022-09-21T17:33:42;14.00;99.90
53053;DHT22;38934;52.690;6.184;2022-09-21T17:36:10;13.90;99.90
53053;DHT22;38934;52.690;6.184;2022-09-21T17:38:37;13.80;99.90
53053;DHT22;38934;52.690;6.184;2022-09-21T17:41:03;13.70;99.90
53053;DHT22;38934;52.690;6.184;2022-09-21T17:43:39;13.60;99.90
53053;DHT22;38934;52.690;6.184;2022-09-21T17:46:19;13.40;99.90
53053;DHT22;38934;52.690;6.184;2022-09-21T17:48:45;13.30;99.90
53053;DHT22;38934;52.690;6.184;2022-09-21T17:51:11;13.20;99.90
53053;DHT22;38934;52.690;6.184;2022-09-21T17:53:57;13.10;99.90
53053;DHT22;38934;52.690;6.184;2022-09-21T17:58:54;12.90;99.90
53053;DHT22;38934;52.690;6.184;2022-09-21T18:03:49;12.70;99.90
53053;DHT22;38934;52.690;6.184;2022-09-21T18:06:15;12.60;99.90
53053;DHT22;38934;52.690;6.184;2022-09-21T18:08:41;12.50;99.90
53053;DHT22;38934;52.690;6.184;2022-09-21T18:13:40;12.40;99.90
53053;DHT22;38934;52.690;6.184;2022-09-21T18:21:03;12.20;99.90
53053;DHT22;38934;52.690;6.184;2022-09-21T18:26:00;12.10;99.90
53053;DHT22;38934;52.690;6.184;2022-09-21T18:28:37;12.00;99.90
53053;DHT22;38934;52.690;6.184;2022-09-21T18:36:39;11.80;99.90
53053;DHT22;38934;52.690;6.184;2022-09-21T18:42:02;11.60;99.90
53053;DHT22;38934;52.690;6.184;2022-09-21T18:44:33;11.60;99.90
53053;DHT22;38934;52.690;6.184;2022-09-21T18:47:09;11.50;99.90
53053;DHT22;38934;52.690;6.184;2022-09-21T18:52:24;11.40;99.90